sensor_id;sensor_type;location;lat;lon;timestamp;P1;durP1;ratioP1;P2;durP2;ratioP2
9547;SDS011;4812;51.992;8.648;2023-02-22T00:01:11;36.63;;;15.43;;
9547;SDS011;4812;51.992;8.648;2023-02-22T00:03:50;32.13;;;13.77;;
9547;SDS011;4812;51.992;8.648;2023-02-22T00:06:19;31.80;;;14.43;;
9547;SDS011;4812;51.992;8.648;2023-02-22T00:08:50;33.27;;;13.30;;
9547;SDS011;4812;51.992;8.648;2023-02-22T00:11:18;31.83;;;13.97;;
9547;SDS011;4812;51.992;8.648;2023-02-22T00:13:46;42.27;;;15.00;;
9547;SDS011;4812;51.992;8.648;2023-02-22T00:16:16;32.03;;;13.67;;
9547;SDS011;4812;51.992;8.648;2023-02-22T00:21:34;34.10;;;13.43;;
9547;SDS011;4812;51.992;8.648;2023-02-22T00:24:02;31.13;;;14.43;;
9547;SDS011;4812;51.992;8.648;2023-02-22T00:26:48;30.63;;;13.47;;
9547;SDS011;4812;51.992;8.648;2023-02-22T00:29:16;29.67;;;13.33;;
9547;SDS011;4812;51.992;8.648;2023-02-22T00:31:44;30.90;;;13.67;;
9547;SDS011;4812;51.992;8.648;2023-02-22T00:34:12;26.17;;;12.13;;
9547;SDS011;4812;51.992;8.648;2023-02-22T00:36:44;27.20;;;13.00;;
9547;SDS011;4812;51.992;8.648;2023-02-22T00:39:12;28.30;;;13.33;;
9547;SDS011;4812;51.992;8.648;2023-02-22T00:44:43;24.27;;;11.90;;
9547;SDS011;4812;51.992;8.648;2023-02-22T00:47:11;23.77;;;11.10;;
9547;SDS011;4812;51.992;8.648;2023-02-22T00:52:44;24.33;;;11.40;;
9547;SDS011;4812;51.992;8.648;2023-02-22T00:55:14;25.33;;;11.70;;
9547;SDS011;4812;51.992;8.648;2023-02-22T00:57:43;25.77;;;12.03;;
9547;SDS011;4812;51.992;8.648;2023-02-22T01:00:14;23.27;;;11.13;;
9547;SDS011;4812;51.992;8.648;2023-02-22T01:02:44;23.03;;;11.70;;
9547;SDS011;4812;51.992;8.648;2023-02-22T01:08:09;24.57;;;10.93;;
9547;SDS011;4812;51.992;8.648;2023-02-22T01:13:41;25.63;;;10.70;;
9547;SDS011;4812;51.992;8.648;2023-02-22T01:16:10;27.70;;;11.40;;
9547;SDS011;4812;51.992;8.648;2023-02-22T01:18:38;23.57;;;11.47;;
9547;SDS011;4812;51.992;8.648;2023-02-22T01:23:51;29.93;;;10.63;;
9547;SDS011;4812;51.992;8.648;2023-02-22T01:26:20;30.73;;;10.13;;
9547;SDS011;4812;51.992;8.648;2023-02-22T01:29:18;52.67;;;11.93;;
9547;SDS011;4812;51.992;8.648;2023-02-22T01:31:51;165.90;;;14.07;;
9547;SDS011;4812;51.992;8.648;2023-02-22T01:34:20;153.77;;;10.80;;
9547;SDS011;4812;51.992;8.648;2023-02-22T01:36:48;85.67;;;8.57;;
9547;SDS011;4812;51.992;8.648;2023-02-22T01:39:17;108.20;;;12.57;;
9547;SDS011;4812;51.992;8.648;2023-02-22T01:41:45;54.23;;;12.13;;
9547;SDS011;4812;51.992;8.648;2023-02-22T01:46:43;124.17;;;11.43;;
9547;SDS011;4812;51.992;8.648;2023-02-22T01:49:11;139.03;;;10.37;;
9547;SDS011;4812;51.992;8.648;2023-02-22T01:51:41;138.33;;;11.70;;
9547;SDS011;4812;51.992;8.648;2023-02-22T01:54:11;107.50;;;11.10;;
9547;SDS011;4812;51.992;8.648;2023-02-22T01:59:46;125.13;;;11.80;;
9547;SDS011;4812;51.992;8.648;2023-02-22T02:02:21;156.87;;;14.90;;
9547;SDS011;4812;51.992;8.648;2023-02-22T02:04:52;75.20;;;11.90;;
9547;SDS011;4812;51.992;8.648;2023-02-22T02:07:21;142.10;;;16.30;;
9547;SDS011;4812;51.992;8.648;2023-02-22T02:09:52;157.63;;;11.80;;
9547;SDS011;4812;51.992;8.648;2023-02-22T02:15:18;112.83;;;11.43;;
9547;SDS011;4812;51.992;8.648;2023-02-22T02:17:47;74.37;;;10.40;;
9547;SDS011;4812;51.992;8.648;2023-02-22T02:20:17;49.73;;;11.07;;
9547;SDS011;4812;51.992;8.648;2023-02-22T02:22:49;42.60;;;10.37;;
9547;SDS011;4812;51.992;8.648;2023-02-22T02:37:29;144.13;;;15.60;;
9547;SDS011;4812;51.992;8.648;2023-02-22T02:43:06;181.87;;;14.63;;
9547;SDS011;4812;51.992;8.648;2023-02-22T02:45:39;81.17;;;10.40;;
9547;SDS011;4812;51.992;8.648;2023-02-22T02:48:14;135.53;;;13.53;;
9547;SDS011;4812;51.992;8.648;2023-02-22T02:50:45;108.63;;;13.07;;
9547;SDS011;4812;51.992;8.648;2023-02-22T02:53:14;97.93;;;11.50;;
9547;SDS011;4812;51.992;8.648;2023-02-22T02:55:45;137.17;;;13.10;;
9547;SDS011;4812;51.992;8.648;2023-02-22T02:58:15;140.33;;;11.60;;
9547;SDS011;4812;51.992;8.648;2023-02-22T03:00:44;94.87;;;10.33;;
9547;SDS011;4812;51.992;8.648;2023-02-22T03:03:19;117.43;;;11.03;;
9547;SDS011;4812;51.992;8.648;2023-02-22T03:09:03;47.33;;;12.00;;
9547;SDS011;4812;51.992;8.648;2023-02-22T03:14:24;33.40;;;9.67;;
9547;SDS011;4812;51.992;8.648;2023-02-22T03:16:55;96.87;;;13.23;;
9547;SDS011;4812;51.992;8.648;2023-02-22T03:19:30;186.00;;;18.57;;
9547;SDS011;4812;51.992;8.648;2023-02-22T03:22:01;119.30;;;15.20;;
9547;SDS011;4812;51.992;8.648;2023-02-22T03:24:35;203.90;;;18.27;;
9547;SDS011;4812;51.992;8.648;2023-02-22T03:27:05;104.77;;;14.13;;
9547;SDS011;4812;51.992;8.648;2023-02-22T03:32:26;57.33;;;11.50;;
9547;SDS011;4812;51.992;8.648;2023-02-22T03:34:59;75.63;;;12.57;;
9547;SDS011;4812;51.992;8.648;2023-02-22T03:37:49;130.67;;;15.00;;
9547;SDS011;4812;51.992;8.648;2023-02-22T03:40:22;91.50;;;12.80;;
9547;SDS011;4812;51.992;8.648;2023-02-22T03:42:56;272.10;;;19.20;;
9547;SDS011;4812;51.992;8.648;2023-02-22T03:45:26;66.70;;;10.43;;
9547;SDS011;4812;51.992;8.648;2023-02-22T03:47:57;151.00;;;13.00;;
9547;SDS011;4812;51.992;8.648;2023-02-22T03:50:31;109.40;;;12.40;;
9547;SDS011;4812;51.992;8.648;2023-02-22T03:53:01;135.97;;;12.70;;
9547;SDS011;4812;51.992;8.648;2023-02-22T03:58:30;132.77;;;12.53;;
9547;SDS011;4812;51.992;8.648;2023-02-22T04:00:58;147.53;;;13.90;;
9547;SDS011;4812;51.992;8.648;2023-02-22T04:03:26;159.90;;;13.00;;
9547;SDS011;4812;51.992;8.648;2023-02-22T04:05:55;95.83;;;10.70;;
9547;SDS011;4812;51.992;8.648;2023-02-22T04:11:30;72.20;;;11.60;;
9547;SDS011;4812;51.992;8.648;2023-02-22T04:13:58;135.23;;;13.90;;
9547;SDS011;4812;51.992;8.648;2023-02-22T04:16:26;206.07;;;16.67;;
9547;SDS011;4812;51.992;8.648;2023-02-22T04:22:07;172.93;;;13.77;;
9547;SDS011;4812;51.992;8.648;2023-02-22T04:24:35;206.07;;;15.43;;
9547;SDS011;4812;51.992;8.648;2023-02-22T04:27:03;58.33;;;9.83;;
9547;SDS011;4812;51.992;8.648;2023-02-22T04:29:34;47.73;;;10.17;;
9547;SDS011;4812;51.992;8.648;2023-02-22T04:32:04;142.40;;;11.50;;
9547;SDS011;4812;51.992;8.648;2023-02-22T04:37:38;181.97;;;15.87;;
9547;SDS011;4812;51.992;8.648;2023-02-22T04:43:08;104.33;;;9.03;;
9547;SDS011;4812;51.992;8.648;2023-02-22T04:45:36;88.37;;;10.03;;
9547;SDS011;4812;51.992;8.648;2023-02-22T04:48:04;87.20;;;9.27;;
9547;SDS011;4812;51.992;8.648;2023-02-22T04:50:32;30.17;;;9.80;;
9547;SDS011;4812;51.992;8.648;2023-02-22T04:53:02;46.43;;;10.53;;
9547;SDS011;4812;51.992;8.648;2023-02-22T04:58:20;189.37;;;13.93;;
9547;SDS011;4812;51.992;8.648;2023-02-22T05:00:48;84.47;;;9.63;;
9547;SDS011;4812;51.992;8.648;2023-02-22T05:03:15;82.40;;;10.07;;
9547;SDS011;4812;51.992;8.648;2023-02-22T05:05:43;59.63;;;8.53;;
9547;SDS011;4812;51.992;8.648;2023-02-22T05:08:12;47.97;;;8.47;;
9547;SDS011;4812;51.992;8.648;2023-02-22T05:13:42;50.53;;;9.17;;
9547;SDS011;4812;51.992;8.648;2023-02-22T05:16:09;73.50;;;9.83;;
9547;SDS011;4812;51.992;8.648;2023-02-22T05:18:37;95.30;;;12.20;;
9547;SDS011;4812;51.992;8.648;2023-02-22T05:21:05;105.63;;;13.57;;
9547;SDS011;4812;51.992;8.648;2023-02-22T05:26:32;64.10;;;12.60;;
9547;SDS011;4812;51.992;8.648;2023-02-22T05:28:59;68.27;;;14.40;;
9547;SDS011;4812;51.992;8.648;2023-02-22T05:31:27;128.07;;;14.90;;
9547;SDS011;4812;51.992;8.648;2023-02-22T05:33:55;56.47;;;13.07;;
9547;SDS011;4812;51.992;8.648;2023-02-22T05:36:23;45.97;;;13.20;;
9547;SDS011;4812;51.992;8.648;2023-02-22T05:38:50;57.23;;;13.53;;
9547;SDS011;4812;51.992;8.648;2023-02-22T05:44:17;79.67;;;14.10;;
9547;SDS011;4812;51.992;8.648;2023-02-22T05:46:44;64.37;;;13.63;;
9547;SDS011;4812;51.992;8.648;2023-02-22T05:49:12;67.07;;;14.83;;
9547;SDS011;4812;51.992;8.648;2023-02-22T05:51:40;76.17;;;14.73;;
9547;SDS011;4812;51.992;8.648;2023-02-22T05:56:58;67.33;;;14.23;;
9547;SDS011;4812;51.992;8.648;2023-02-22T05:59:27;102.80;;;14.57;;
9547;SDS011;4812;51.992;8.648;2023-02-22T06:02:25;137.53;;;16.43;;
9547;SDS011;4812;51.992;8.648;2023-02-22T06:04:52;133.77;;;15.50;;
9547;SDS011;4812;51.992;8.648;2023-02-22T06:07:20;222.70;;;18.30;;
9547;SDS011;4812;51.992;8.648;2023-02-22T06:09:48;219.73;;;16.83;;
9547;SDS011;4812;51.992;8.648;2023-02-22T06:12:16;211.97;;;18.67;;
9547;SDS011;4812;51.992;8.648;2023-02-22T06:14:45;53.03;;;12.13;;
9547;SDS011;4812;51.992;8.648;2023-02-22T06:17:13;53.27;;;12.67;;
9547;SDS011;4812;51.992;8.648;2023-02-22T06:19:41;38.83;;;13.03;;
9547;SDS011;4812;51.992;8.648;2023-02-22T06:22:13;46.50;;;12.50;;
9547;SDS011;4812;51.992;8.648;2023-02-22T06:24:40;40.20;;;13.43;;
9547;SDS011;4812;51.992;8.648;2023-02-22T06:27:07;46.53;;;14.63;;
9547;SDS011;4812;51.992;8.648;2023-02-22T06:29:35;46.83;;;13.43;;
9547;SDS011;4812;51.992;8.648;2023-02-22T06:34:57;101.20;;;16.63;;
9547;SDS011;4812;51.992;8.648;2023-02-22T06:40:14;87.03;;;18.60;;
9547;SDS011;4812;51.992;8.648;2023-02-22T06:42:42;53.63;;;20.17;;
9547;SDS011;4812;51.992;8.648;2023-02-22T06:45:10;62.97;;;19.83;;
9547;SDS011;4812;51.992;8.648;2023-02-22T06:47:39;42.83;;;16.37;;
9547;SDS011;4812;51.992;8.648;2023-02-22T06:50:07;84.07;;;16.70;;
9547;SDS011;4812;51.992;8.648;2023-02-22T06:55:47;59.03;;;16.27;;
9547;SDS011;4812;51.992;8.648;2023-02-22T06:58:14;67.50;;;18.47;;
9547;SDS011;4812;51.992;8.648;2023-02-22T07:04:05;60.67;;;16.80;;
9547;SDS011;4812;51.992;8.648;2023-02-22T07:09:35;76.77;;;17.93;;
9547;SDS011;4812;51.992;8.648;2023-02-22T07:12:02;85.27;;;21.30;;
9547;SDS011;4812;51.992;8.648;2023-02-22T07:14:30;91.00;;;20.03;;
9547;SDS011;4812;51.992;8.648;2023-02-22T07:16:57;81.93;;;21.67;;
9547;SDS011;4812;51.992;8.648;2023-02-22T07:22:29;70.73;;;19.27;;
9547;SDS011;4812;51.992;8.648;2023-02-22T07:24:57;59.60;;;19.03;;
9547;SDS011;4812;51.992;8.648;2023-02-22T07:27:25;55.97;;;18.47;;
9547;SDS011;4812;51.992;8.648;2023-02-22T07:29:52;56.47;;;17.07;;
9547;SDS011;4812;51.992;8.648;2023-02-22T07:32:20;55.60;;;18.33;;
9547;SDS011;4812;51.992;8.648;2023-02-22T07:35:19;57.10;;;20.93;;
9547;SDS011;4812;51.992;8.648;2023-02-22T07:37:48;66.30;;;20.43;;
9547;SDS011;4812;51.992;8.648;2023-02-22T07:40:16;66.97;;;21.83;;
9547;SDS011;4812;51.992;8.648;2023-02-22T07:42:55;65.97;;;21.77;;
9547;SDS011;4812;51.992;8.648;2023-02-22T07:45:25;55.63;;;21.40;;
9547;SDS011;4812;51.992;8.648;2023-02-22T07:47:54;57.23;;;20.60;;
9547;SDS011;4812;51.992;8.648;2023-02-22T07:53:13;49.23;;;21.20;;
9547;SDS011;4812;51.992;8.648;2023-02-22T07:55:41;48.80;;;20.20;;
9547;SDS011;4812;51.992;8.648;2023-02-22T07:58:11;49.10;;;21.30;;
9547;SDS011;4812;51.992;8.648;2023-02-22T08:00:40;55.77;;;21.17;;
9547;SDS011;4812;51.992;8.648;2023-02-22T08:03:10;56.73;;;20.80;;
9547;SDS011;4812;51.992;8.648;2023-02-22T08:05:39;61.03;;;20.83;;
9547;SDS011;4812;51.992;8.648;2023-02-22T08:08:07;68.57;;;22.93;;
9547;SDS011;4812;51.992;8.648;2023-02-22T08:10:36;57.10;;;21.50;;
9547;SDS011;4812;51.992;8.648;2023-02-22T08:13:04;54.40;;;21.40;;
9547;SDS011;4812;51.992;8.648;2023-02-22T08:15:33;53.40;;;22.33;;
9547;SDS011;4812;51.992;8.648;2023-02-22T08:18:02;54.57;;;21.93;;
9547;SDS011;4812;51.992;8.648;2023-02-22T08:21:01;49.87;;;20.87;;
9547;SDS011;4812;51.992;8.648;2023-02-22T08:23:28;58.70;;;22.27;;
9547;SDS011;4812;51.992;8.648;2023-02-22T08:26:02;49.93;;;22.10;;
9547;SDS011;4812;51.992;8.648;2023-02-22T08:28:32;45.80;;;21.97;;
9547;SDS011;4812;51.992;8.648;2023-02-22T08:33:48;58.43;;;22.70;;
9547;SDS011;4812;51.992;8.648;2023-02-22T08:36:16;57.23;;;23.37;;
9547;SDS011;4812;51.992;8.648;2023-02-22T08:38:43;59.20;;;23.80;;
9547;SDS011;4812;51.992;8.648;2023-02-22T08:41:12;60.50;;;24.23;;
9547;SDS011;4812;51.992;8.648;2023-02-22T08:43:40;61.17;;;24.87;;
9547;SDS011;4812;51.992;8.648;2023-02-22T08:49:06;58.67;;;24.87;;
9547;SDS011;4812;51.992;8.648;2023-02-22T08:51:34;68.77;;;25.10;;
9547;SDS011;4812;51.992;8.648;2023-02-22T08:54:02;70.83;;;24.43;;
9547;SDS011;4812;51.992;8.648;2023-02-22T08:56:33;61.50;;;24.93;;
9547;SDS011;4812;51.992;8.648;2023-02-22T09:01:57;62.20;;;24.57;;
9547;SDS011;4812;51.992;8.648;2023-02-22T09:04:25;64.90;;;25.87;;
9547;SDS011;4812;51.992;8.648;2023-02-22T09:06:52;68.50;;;25.30;;
9547;SDS011;4812;51.992;8.648;2023-02-22T09:09:20;58.37;;;23.33;;
9547;SDS011;4812;51.992;8.648;2023-02-22T09:11:49;59.43;;;25.37;;
9547;SDS011;4812;51.992;8.648;2023-02-22T09:14:18;58.80;;;24.77;;
9547;SDS011;4812;51.992;8.648;2023-02-22T09:16:46;63.13;;;26.30;;
9547;SDS011;4812;51.992;8.648;2023-02-22T09:19:13;63.23;;;24.93;;
9547;SDS011;4812;51.992;8.648;2023-02-22T09:21:41;60.33;;;25.20;;
9547;SDS011;4812;51.992;8.648;2023-02-22T09:24:08;54.83;;;25.57;;
9547;SDS011;4812;51.992;8.648;2023-02-22T09:26:36;55.67;;;25.67;;
9547;SDS011;4812;51.992;8.648;2023-02-22T09:29:06;54.50;;;26.10;;
9547;SDS011;4812;51.992;8.648;2023-02-22T09:34:34;50.70;;;24.17;;
9547;SDS011;4812;51.992;8.648;2023-02-22T09:37:01;38.70;;;21.57;;
9547;SDS011;4812;51.992;8.648;2023-02-22T09:39:30;36.77;;;20.93;;
9547;SDS011;4812;51.992;8.648;2023-02-22T16:38:46;8.00;;;7.20;;
9547;SDS011;4812;51.992;8.648;2023-02-22T16:41:14;9.87;;;7.33;;
9547;SDS011;4812;51.992;8.648;2023-02-22T16:46:50;10.73;;;7.63;;
9547;SDS011;4812;51.992;8.648;2023-02-22T16:49:18;8.57;;;7.20;;
9547;SDS011;4812;51.992;8.648;2023-02-22T16:51:48;8.00;;;7.20;;
9547;SDS011;4812;51.992;8.648;2023-02-22T16:57:01;11.87;;;7.50;;
9547;SDS011;4812;51.992;8.648;2023-02-22T16:59:30;8.10;;;6.87;;
9547;SDS011;4812;51.992;8.648;2023-02-22T17:05:02;7.80;;;7.00;;
9547;SDS011;4812;51.992;8.648;2023-02-22T17:07:30;8.83;;;7.50;;
9547;SDS011;4812;51.992;8.648;2023-02-22T17:09:57;9.43;;;8.00;;
9547;SDS011;4812;51.992;8.648;2023-02-22T17:12:25;9.77;;;7.57;;
9547;SDS011;4812;51.992;8.648;2023-02-22T17:14:53;10.03;;;7.93;;
9547;SDS011;4812;51.992;8.648;2023-02-22T17:20:20;10.53;;;8.43;;
9547;SDS011;4812;51.992;8.648;2023-02-22T17:25:57;9.27;;;8.33;;
9547;SDS011;4812;51.992;8.648;2023-02-22T17:28:27;8.03;;;7.13;;
9547;SDS011;4812;51.992;8.648;2023-02-22T17:30:55;6.50;;;5.90;;
9547;SDS011;4812;51.992;8.648;2023-02-22T17:33:27;10.10;;;6.07;;
9547;SDS011;4812;51.992;8.648;2023-02-22T17:35:59;9.20;;;7.53;;
9547;SDS011;4812;51.992;8.648;2023-02-22T17:41:27;10.47;;;6.93;;
9547;SDS011;4812;51.992;8.648;2023-02-22T17:43:54;10.83;;;7.17;;
9547;SDS011;4812;51.992;8.648;2023-02-22T17:46:23;8.30;;;6.97;;
9547;SDS011;4812;51.992;8.648;2023-02-22T17:48:51;8.77;;;7.20;;
9547;SDS011;4812;51.992;8.648;2023-02-22T17:51:21;12.90;;;9.27;;
9547;SDS011;4812;51.992;8.648;2023-02-22T17:53:50;13.17;;;8.40;;
9547;SDS011;4812;51.992;8.648;2023-02-22T17:56:18;11.47;;;8.67;;
9547;SDS011;4812;51.992;8.648;2023-02-22T17:58:46;11.53;;;7.80;;
9547;SDS011;4812;51.992;8.648;2023-02-22T18:04:11;10.43;;;7.93;;
9547;SDS011;4812;51.992;8.648;2023-02-22T18:09:38;11.77;;;7.80;;
9547;SDS011;4812;51.992;8.648;2023-02-22T18:12:07;9.77;;;7.70;;
9547;SDS011;4812;51.992;8.648;2023-02-22T18:14:34;9.20;;;7.73;;
9547;SDS011;4812;51.992;8.648;2023-02-22T18:17:15;9.67;;;7.13;;
9547;SDS011;4812;51.992;8.648;2023-02-22T18:19:43;14.57;;;7.80;;
9547;SDS011;4812;51.992;8.648;2023-02-22T18:25:18;8.37;;;7.57;;
9547;SDS011;4812;51.992;8.648;2023-02-22T18:30:50;9.80;;;7.60;;
9547;SDS011;4812;51.992;8.648;2023-02-22T18:33:21;9.33;;;7.63;;
9547;SDS011;4812;51.992;8.648;2023-02-22T18:35:49;9.23;;;7.90;;
9547;SDS011;4812;51.992;8.648;2023-02-22T18:38:17;12.50;;;9.07;;
9547;SDS011;4812;51.992;8.648;2023-02-22T18:40:56;10.60;;;7.90;;
9547;SDS011;4812;51.992;8.648;2023-02-22T18:43:24;11.50;;;8.57;;
9547;SDS011;4812;51.992;8.648;2023-02-22T18:45:52;10.43;;;7.53;;
9547;SDS011;4812;51.992;8.648;2023-02-22T18:48:22;9.80;;;8.20;;
9547;SDS011;4812;51.992;8.648;2023-02-22T18:50:50;10.07;;;8.20;;
9547;SDS011;4812;51.992;8.648;2023-02-22T18:53:17;9.30;;;8.30;;
9547;SDS011;4812;51.992;8.648;2023-02-22T18:58:15;11.13;;;8.63;;
9547;SDS011;4812;51.992;8.648;2023-02-22T19:00:42;9.17;;;8.17;;
9547;SDS011;4812;51.992;8.648;2023-02-22T19:03:41;9.50;;;8.30;;
9547;SDS011;4812;51.992;8.648;2023-02-22T19:06:09;10.13;;;8.10;;
9547;SDS011;4812;51.992;8.648;2023-02-22T19:08:37;11.10;;;9.00;;
9547;SDS011;4812;51.992;8.648;2023-02-22T19:11:06;12.77;;;9.50;;
9547;SDS011;4812;51.992;8.648;2023-02-22T19:13:35;10.03;;;7.97;;
9547;SDS011;4812;51.992;8.648;2023-02-22T19:16:04;9.90;;;8.30;;
9547;SDS011;4812;51.992;8.648;2023-02-22T19:18:33;11.13;;;8.90;;
9547;SDS011;4812;51.992;8.648;2023-02-22T19:21:03;9.97;;;8.43;;
9547;SDS011;4812;51.992;8.648;2023-02-22T19:23:35;9.73;;;8.73;;
9547;SDS011;4812;51.992;8.648;2023-02-22T19:26:10;10.93;;;8.70;;
9547;SDS011;4812;51.992;8.648;2023-02-22T19:28:38;9.67;;;8.67;;
9547;SDS011;4812;51.992;8.648;2023-02-22T19:31:10;10.33;;;8.57;;
9547;SDS011;4812;51.992;8.648;2023-02-22T19:33:39;10.67;;;8.17;;
9547;SDS011;4812;51.992;8.648;2023-02-22T19:36:10;10.27;;;8.23;;
9547;SDS011;4812;51.992;8.648;2023-02-22T19:41:40;14.60;;;9.00;;
9547;SDS011;4812;51.992;8.648;2023-02-22T19:44:08;14.30;;;9.30;;
9547;SDS011;4812;51.992;8.648;2023-02-22T19:46:35;11.27;;;8.73;;
9547;SDS011;4812;51.992;8.648;2023-02-22T19:49:05;10.13;;;8.50;;
9547;SDS011;4812;51.992;8.648;2023-02-22T19:51:34;12.23;;;9.20;;
9547;SDS011;4812;51.992;8.648;2023-02-22T19:54:03;11.27;;;9.07;;
9547;SDS011;4812;51.992;8.648;2023-02-22T19:56:33;11.10;;;8.93;;
9547;SDS011;4812;51.992;8.648;2023-02-22T19:59:03;11.13;;;9.37;;
9547;SDS011;4812;51.992;8.648;2023-02-22T20:01:35;11.57;;;9.80;;
9547;SDS011;4812;51.992;8.648;2023-02-22T20:04:03;13.43;;;10.17;;
9547;SDS011;4812;51.992;8.648;2023-02-22T20:06:33;11.97;;;9.87;;
9547;SDS011;4812;51.992;8.648;2023-02-22T20:12:03;14.47;;;9.33;;
9547;SDS011;4812;51.992;8.648;2023-02-22T20:14:32;11.90;;;9.77;;
9547;SDS011;4812;51.992;8.648;2023-02-22T20:17:00;12.60;;;9.63;;
9547;SDS011;4812;51.992;8.648;2023-02-22T20:19:29;12.90;;;10.00;;
9547;SDS011;4812;51.992;8.648;2023-02-22T20:21:58;12.97;;;10.23;;
9547;SDS011;4812;51.992;8.648;2023-02-22T20:24:26;12.33;;;10.10;;
9547;SDS011;4812;51.992;8.648;2023-02-22T20:26:54;15.13;;;9.47;;
9547;SDS011;4812;51.992;8.648;2023-02-22T20:29:23;13.30;;;10.67;;
9547;SDS011;4812;51.992;8.648;2023-02-22T20:31:54;12.63;;;9.40;;
9547;SDS011;4812;51.992;8.648;2023-02-22T20:34:23;10.50;;;9.40;;
9547;SDS011;4812;51.992;8.648;2023-02-22T20:36:51;13.70;;;10.37;;
9547;SDS011;4812;51.992;8.648;2023-02-22T20:39:20;11.33;;;9.97;;
9547;SDS011;4812;51.992;8.648;2023-02-22T20:41:48;13.83;;;10.13;;
9547;SDS011;4812;51.992;8.648;2023-02-22T20:44:16;16.80;;;10.53;;
9547;SDS011;4812;51.992;8.648;2023-02-22T20:46:45;14.23;;;10.00;;
9547;SDS011;4812;51.992;8.648;2023-02-22T20:49:14;12.03;;;9.83;;
9547;SDS011;4812;51.992;8.648;2023-02-22T20:51:43;16.43;;;10.00;;
9547;SDS011;4812;51.992;8.648;2023-02-22T20:57:00;12.13;;;9.77;;
9547;SDS011;4812;51.992;8.648;2023-02-22T20:59:28;12.90;;;9.67;;
9547;SDS011;4812;51.992;8.648;2023-02-22T21:01:55;14.93;;;10.20;;
9547;SDS011;4812;51.992;8.648;2023-02-22T21:07:22;12.30;;;9.90;;
9547;SDS011;4812;51.992;8.648;2023-02-22T21:09:49;15.37;;;10.50;;
9547;SDS011;4812;51.992;8.648;2023-02-22T21:12:19;14.97;;;10.27;;
9547;SDS011;4812;51.992;8.648;2023-02-22T21:14:46;14.53;;;10.03;;
9547;SDS011;4812;51.992;8.648;2023-02-22T21:17:14;14.70;;;10.90;;
9547;SDS011;4812;51.992;8.648;2023-02-22T21:19:46;13.43;;;10.53;;
9547;SDS011;4812;51.992;8.648;2023-02-22T21:22:14;14.97;;;10.67;;
9547;SDS011;4812;51.992;8.648;2023-02-22T21:24:41;13.80;;;10.37;;
9547;SDS011;4812;51.992;8.648;2023-02-22T21:27:09;14.60;;;11.00;;
9547;SDS011;4812;51.992;8.648;2023-02-22T21:29:38;14.87;;;10.17;;
9547;SDS011;4812;51.992;8.648;2023-02-22T21:32:06;14.70;;;11.03;;
9547;SDS011;4812;51.992;8.648;2023-02-22T21:34:35;15.53;;;10.97;;
9547;SDS011;4812;51.992;8.648;2023-02-22T21:37:02;15.10;;;10.60;;
9547;SDS011;4812;51.992;8.648;2023-02-22T21:39:33;19.47;;;11.23;;
9547;SDS011;4812;51.992;8.648;2023-02-22T21:42:00;15.07;;;11.20;;
9547;SDS011;4812;51.992;8.648;2023-02-22T21:44:30;17.30;;;10.90;;
9547;SDS011;4812;51.992;8.648;2023-02-22T21:46:59;12.93;;;10.37;;
9547;SDS011;4812;51.992;8.648;2023-02-22T21:49:27;17.57;;;11.80;;
9547;SDS011;4812;51.992;8.648;2023-02-22T21:51:54;23.63;;;12.33;;
9547;SDS011;4812;51.992;8.648;2023-02-22T21:54:22;13.47;;;11.47;;
9547;SDS011;4812;51.992;8.648;2023-02-22T21:56:50;16.50;;;12.13;;
9547;SDS011;4812;51.992;8.648;2023-02-22T21:59:20;14.47;;;11.40;;
9547;SDS011;4812;51.992;8.648;2023-02-22T22:01:49;16.73;;;11.60;;
9547;SDS011;4812;51.992;8.648;2023-02-22T22:04:22;17.20;;;12.07;;
9547;SDS011;4812;51.992;8.648;2023-02-22T22:06:52;17.60;;;11.83;;
9547;SDS011;4812;51.992;8.648;2023-02-22T22:09:22;17.90;;;11.77;;
9547;SDS011;4812;51.992;8.648;2023-02-22T22:11:51;18.90;;;12.73;;
9547;SDS011;4812;51.992;8.648;2023-02-22T22:14:31;19.93;;;12.87;;
9547;SDS011;4812;51.992;8.648;2023-02-22T22:20:03;16.30;;;12.50;;
9547;SDS011;4812;51.992;8.648;2023-02-22T22:22:31;19.10;;;13.47;;
9547;SDS011;4812;51.992;8.648;2023-02-22T22:24:59;21.30;;;13.03;;
9547;SDS011;4812;51.992;8.648;2023-02-22T22:27:28;21.13;;;13.30;;
9547;SDS011;4812;51.992;8.648;2023-02-22T22:32:46;19.07;;;14.17;;
9547;SDS011;4812;51.992;8.648;2023-02-22T22:35:14;19.13;;;14.73;;
9547;SDS011;4812;51.992;8.648;2023-02-22T22:37:42;26.13;;;16.90;;
9547;SDS011;4812;51.992;8.648;2023-02-22T22:40:12;29.47;;;16.27;;
9547;SDS011;4812;51.992;8.648;2023-02-22T22:42:41;29.33;;;16.53;;
9547;SDS011;4812;51.992;8.648;2023-02-22T22:45:08;27.23;;;16.70;;
9547;SDS011;4812;51.992;8.648;2023-02-22T22:50:33;29.50;;;18.77;;
9547;SDS011;4812;51.992;8.648;2023-02-22T22:53:03;30.57;;;19.23;;
9547;SDS011;4812;51.992;8.648;2023-02-22T22:56:02;32.23;;;19.20;;
9547;SDS011;4812;51.992;8.648;2023-02-22T22:58:30;33.20;;;19.27;;
9547;SDS011;4812;51.992;8.648;2023-02-22T23:00:58;34.33;;;20.00;;
9547;SDS011;4812;51.992;8.648;2023-02-22T23:03:31;31.43;;;19.00;;
9547;SDS011;4812;51.992;8.648;2023-02-22T23:06:03;34.23;;;20.97;;
9547;SDS011;4812;51.992;8.648;2023-02-22T23:08:31;33.20;;;20.67;;
9547;SDS011;4812;51.992;8.648;2023-02-22T23:11:08;37.47;;;22.53;;
9547;SDS011;4812;51.992;8.648;2023-02-22T23:16:39;35.83;;;21.63;;
9547;SDS011;4812;51.992;8.648;2023-02-22T23:19:07;32.13;;;21.37;;
9547;SDS011;4812;51.992;8.648;2023-02-22T23:21:36;38.67;;;23.40;;
9547;SDS011;4812;51.992;8.648;2023-02-22T23:24:05;32.20;;;21.27;;
9547;SDS011;4812;51.992;8.648;2023-02-22T23:26:33;36.17;;;23.37;;
9547;SDS011;4812;51.992;8.648;2023-02-22T23:31:58;36.80;;;22.17;;
9547;SDS011;4812;51.992;8.648;2023-02-22T23:34:26;32.83;;;22.13;;
9547;SDS011;4812;51.992;8.648;2023-02-22T23:36:55;37.60;;;23.43;;
9547;SDS011;4812;51.992;8.648;2023-02-22T23:39:23;38.47;;;22.80;;
9547;SDS011;4812;51.992;8.648;2023-02-22T23:41:51;38.27;;;23.63;;
9547;SDS011;4812;51.992;8.648;2023-02-22T23:44:19;33.40;;;22.00;;
9547;SDS011;4812;51.992;8.648;2023-02-22T23:46:47;35.23;;;21.80;;
9547;SDS011;4812;51.992;8.648;2023-02-22T23:49:20;37.90;;;22.43;;
9547;SDS011;4812;51.992;8.648;2023-02-22T23:51:48;33.90;;;21.40;;
9547;SDS011;4812;51.992;8.648;2023-02-22T23:54:18;36.13;;;23.00;;
9547;SDS011;4812;51.992;8.648;2023-02-22T23:59:44;41.30;;;25.30;;
